sensor_id;sensor_type;location;lat;lon;timestamp;P1;durP1;ratioP1;P2;durP2;ratioP2
1402;SDS011;696;48.546;9.896;2023-02-05T00:01:49;3.47;;;1.85;;
1402;SDS011;696;48.546;9.896;2023-02-05T00:04:15;2.15;;;1.95;;
1402;SDS011;696;48.546;9.896;2023-02-05T00:06:40;2.70;;;2.20;;
1402;SDS011;696;48.546;9.896;2023-02-05T00:09:06;3.45;;;2.13;;
1402;SDS011;696;48.546;9.896;2023-02-05T00:11:31;3.63;;;2.33;;
1402;SDS011;696;48.546;9.896;2023-02-05T00:13:56;5.03;;;2.40;;
1402;SDS011;696;48.546;9.896;2023-02-05T00:16:22;7.35;;;2.15;;
1402;SDS011;696;48.546;9.896;2023-02-05T00:18:49;2.53;;;2.03;;
1402;SDS011;696;48.546;9.896;2023-02-05T00:21:14;3.83;;;2.42;;
1402;SDS011;696;48.546;9.896;2023-02-05T00:23:41;3.10;;;1.95;;
1402;SDS011;696;48.546;9.896;2023-02-05T00:26:07;5.72;;;2.80;;
1402;SDS011;696;48.546;9.896;2023-02-05T00:28:35;3.17;;;2.28;;
1402;SDS011;696;48.546;9.896;2023-02-05T00:31:05;4.10;;;2.60;;
1402;SDS011;696;48.546;9.896;2023-02-05T00:33:34;3.70;;;2.47;;
1402;SDS011;696;48.546;9.896;2023-02-05T00:36:00;3.65;;;2.95;;
1402;SDS011;696;48.546;9.896;2023-02-05T00:38:26;6.03;;;3.63;;
1402;SDS011;696;48.546;9.896;2023-02-05T00:40:51;3.67;;;2.58;;
1402;SDS011;696;48.546;9.896;2023-02-05T00:43:16;5.22;;;2.20;;
1402;SDS011;696;48.546;9.896;2023-02-05T00:45:42;3.65;;;2.30;;
1402;SDS011;696;48.546;9.896;2023-02-05T00:48:07;3.75;;;2.47;;
1402;SDS011;696;48.546;9.896;2023-02-05T00:50:33;4.03;;;2.28;;
1402;SDS011;696;48.546;9.896;2023-02-05T00:52:59;2.47;;;2.10;;
1402;SDS011;696;48.546;9.896;2023-02-05T00:55:24;2.97;;;2.00;;
1402;SDS011;696;48.546;9.896;2023-02-05T00:57:50;3.40;;;2.60;;
1402;SDS011;696;48.546;9.896;2023-02-05T01:00:15;7.20;;;2.58;;
1402;SDS011;696;48.546;9.896;2023-02-05T01:02:41;8.13;;;2.38;;
1402;SDS011;696;48.546;9.896;2023-02-05T01:05:06;2.78;;;2.20;;
1402;SDS011;696;48.546;9.896;2023-02-05T01:07:32;3.88;;;2.50;;
1402;SDS011;696;48.546;9.896;2023-02-05T01:09:57;4.82;;;2.90;;
1402;SDS011;696;48.546;9.896;2023-02-05T01:12:23;2.50;;;2.00;;
1402;SDS011;696;48.546;9.896;2023-02-05T01:14:48;3.33;;;2.38;;
1402;SDS011;696;48.546;9.896;2023-02-05T01:17:14;4.85;;;3.10;;
1402;SDS011;696;48.546;9.896;2023-02-05T01:19:40;2.72;;;2.40;;
1402;SDS011;696;48.546;9.896;2023-02-05T01:22:05;2.42;;;2.10;;
1402;SDS011;696;48.546;9.896;2023-02-05T01:24:31;6.38;;;2.90;;
1402;SDS011;696;48.546;9.896;2023-02-05T01:26:56;3.60;;;2.33;;
1402;SDS011;696;48.546;9.896;2023-02-05T01:29:23;3.58;;;2.33;;
1402;SDS011;696;48.546;9.896;2023-02-05T01:31:49;6.60;;;3.63;;
1402;SDS011;696;48.546;9.896;2023-02-05T01:34:14;6.05;;;2.88;;
1402;SDS011;696;48.546;9.896;2023-02-05T01:36:40;4.60;;;2.70;;
1402;SDS011;696;48.546;9.896;2023-02-05T01:39:05;4.70;;;2.95;;
1402;SDS011;696;48.546;9.896;2023-02-05T01:41:30;3.95;;;2.60;;
1402;SDS011;696;48.546;9.896;2023-02-05T01:44:29;7.15;;;3.13;;
1402;SDS011;696;48.546;9.896;2023-02-05T01:46:51;4.38;;;2.90;;
1402;SDS011;696;48.546;9.896;2023-02-05T01:51:59;2.92;;;2.22;;
1402;SDS011;696;48.546;9.896;2023-02-05T01:54:27;6.80;;;2.63;;
1402;SDS011;696;48.546;9.896;2023-02-05T01:56:55;3.45;;;2.53;;
1402;SDS011;696;48.546;9.896;2023-02-05T01:59:25;4.65;;;2.70;;
1402;SDS011;696;48.546;9.896;2023-02-05T02:01:52;4.32;;;2.53;;
1402;SDS011;696;48.546;9.896;2023-02-05T02:04:21;4.70;;;2.88;;
1402;SDS011;696;48.546;9.896;2023-02-05T02:06:55;3.83;;;2.75;;
1402;SDS011;696;48.546;9.896;2023-02-05T02:09:20;5.75;;;2.90;;
1402;SDS011;696;48.546;9.896;2023-02-05T02:11:45;3.95;;;2.53;;
1402;SDS011;696;48.546;9.896;2023-02-05T02:14:11;2.92;;;2.33;;
1402;SDS011;696;48.546;9.896;2023-02-05T02:16:37;4.68;;;2.92;;
1402;SDS011;696;48.546;9.896;2023-02-05T02:19:06;3.65;;;2.80;;
1402;SDS011;696;48.546;9.896;2023-02-05T02:30:01;4.18;;;2.90;;
1402;SDS011;696;48.546;9.896;2023-02-05T02:38:20;3.28;;;2.70;;
1402;SDS011;696;48.546;9.896;2023-02-05T02:40:51;3.83;;;2.60;;
1402;SDS011;696;48.546;9.896;2023-02-05T02:46:08;3.20;;;2.55;;
1402;SDS011;696;48.546;9.896;2023-02-05T02:48:41;3.80;;;2.83;;
1402;SDS011;696;48.546;9.896;2023-02-05T02:51:07;3.85;;;3.05;;
1402;SDS011;696;48.546;9.896;2023-02-05T02:53:35;4.25;;;2.97;;
1402;SDS011;696;48.546;9.896;2023-02-05T02:56:03;9.48;;;3.70;;
1402;SDS011;696;48.546;9.896;2023-02-05T02:58:34;4.35;;;2.88;;
1402;SDS011;696;48.546;9.896;2023-02-05T03:01:02;5.30;;;3.55;;
1402;SDS011;696;48.546;9.896;2023-02-05T03:03:31;3.92;;;2.90;;
1402;SDS011;696;48.546;9.896;2023-02-05T03:05:57;5.82;;;3.28;;
1402;SDS011;696;48.546;9.896;2023-02-05T03:08:26;5.18;;;2.90;;
1402;SDS011;696;48.546;9.896;2023-02-05T03:11:01;6.50;;;3.78;;
1402;SDS011;696;48.546;9.896;2023-02-05T03:13:30;6.22;;;3.15;;
1402;SDS011;696;48.546;9.896;2023-02-05T03:15:56;7.65;;;3.70;;
1402;SDS011;696;48.546;9.896;2023-02-05T03:18:21;6.07;;;3.50;;
1402;SDS011;696;48.546;9.896;2023-02-05T03:21:01;3.50;;;3.13;;
1402;SDS011;696;48.546;9.896;2023-02-05T03:23:30;3.90;;;3.15;;
1402;SDS011;696;48.546;9.896;2023-02-05T03:25:55;6.15;;;3.42;;
1402;SDS011;696;48.546;9.896;2023-02-05T03:28:21;3.45;;;3.15;;
1402;SDS011;696;48.546;9.896;2023-02-05T03:33:26;6.10;;;3.22;;
1402;SDS011;696;48.546;9.896;2023-02-05T03:36:07;4.63;;;3.22;;
1402;SDS011;696;48.546;9.896;2023-02-05T03:39:39;4.38;;;3.28;;
1402;SDS011;696;48.546;9.896;2023-02-05T03:41:54;3.90;;;3.17;;
1402;SDS011;696;48.546;9.896;2023-02-05T03:52:47;4.30;;;2.88;;
1402;SDS011;696;48.546;9.896;2023-02-05T03:56:02;3.95;;;3.15;;
1402;SDS011;696;48.546;9.896;2023-02-05T03:58:14;5.25;;;3.38;;
1402;SDS011;696;48.546;9.896;2023-02-05T04:00:49;5.70;;;3.78;;
1402;SDS011;696;48.546;9.896;2023-02-05T04:03:15;7.07;;;4.47;;
1402;SDS011;696;48.546;9.896;2023-02-05T04:05:42;5.07;;;3.40;;
1402;SDS011;696;48.546;9.896;2023-02-05T04:08:08;7.85;;;4.53;;
1402;SDS011;696;48.546;9.896;2023-02-05T04:10:33;5.22;;;3.95;;
1402;SDS011;696;48.546;9.896;2023-02-05T04:12:58;7.55;;;4.55;;
1402;SDS011;696;48.546;9.896;2023-02-05T04:15:24;7.38;;;4.28;;
1402;SDS011;696;48.546;9.896;2023-02-05T04:17:49;7.47;;;4.40;;
1402;SDS011;696;48.546;9.896;2023-02-05T04:20:14;5.18;;;4.13;;
1402;SDS011;696;48.546;9.896;2023-02-05T04:22:40;4.80;;;3.75;;
1402;SDS011;696;48.546;9.896;2023-02-05T04:25:05;4.40;;;3.65;;
1402;SDS011;696;48.546;9.896;2023-02-05T04:27:31;5.78;;;3.90;;
1402;SDS011;696;48.546;9.896;2023-02-05T04:29:57;5.55;;;3.58;;
1402;SDS011;696;48.546;9.896;2023-02-05T04:32:22;6.78;;;3.53;;
1402;SDS011;696;48.546;9.896;2023-02-05T04:34:48;6.50;;;4.45;;
1402;SDS011;696;48.546;9.896;2023-02-05T04:37:13;6.40;;;4.15;;
1402;SDS011;696;48.546;9.896;2023-02-05T04:39:38;6.53;;;4.63;;
1402;SDS011;696;48.546;9.896;2023-02-05T04:42:04;6.07;;;4.38;;
1402;SDS011;696;48.546;9.896;2023-02-05T04:44:29;5.18;;;4.15;;
1402;SDS011;696;48.546;9.896;2023-02-05T04:46:54;5.10;;;3.83;;
1402;SDS011;696;48.546;9.896;2023-02-05T04:49:20;8.80;;;4.40;;
1402;SDS011;696;48.546;9.896;2023-02-05T04:51:45;5.32;;;4.05;;
1402;SDS011;696;48.546;9.896;2023-02-05T04:54:10;7.80;;;4.65;;
1402;SDS011;696;48.546;9.896;2023-02-05T04:56:37;9.52;;;4.90;;
1402;SDS011;696;48.546;9.896;2023-02-05T04:59:02;8.40;;;5.65;;
1402;SDS011;696;48.546;9.896;2023-02-05T05:01:28;9.57;;;5.05;;
1402;SDS011;696;48.546;9.896;2023-02-05T05:03:53;6.88;;;4.65;;
1402;SDS011;696;48.546;9.896;2023-02-05T05:06:18;10.43;;;5.45;;
1402;SDS011;696;48.546;9.896;2023-02-05T05:08:44;8.10;;;5.50;;
1402;SDS011;696;48.546;9.896;2023-02-05T05:11:10;8.00;;;5.68;;
1402;SDS011;696;48.546;9.896;2023-02-05T05:13:37;8.57;;;5.15;;
1402;SDS011;696;48.546;9.896;2023-02-05T05:16:03;9.50;;;5.40;;
1402;SDS011;696;48.546;9.896;2023-02-05T05:18:29;8.70;;;4.65;;
1402;SDS011;696;48.546;9.896;2023-02-05T05:20:54;7.80;;;4.57;;
1402;SDS011;696;48.546;9.896;2023-02-05T05:23:20;9.43;;;4.45;;
1402;SDS011;696;48.546;9.896;2023-02-05T05:25:46;9.80;;;5.07;;
1402;SDS011;696;48.546;9.896;2023-02-05T05:28:12;6.80;;;4.65;;
1402;SDS011;696;48.546;9.896;2023-02-05T05:30:38;9.02;;;5.07;;
1402;SDS011;696;48.546;9.896;2023-02-05T05:33:04;7.07;;;4.53;;
1402;SDS011;696;48.546;9.896;2023-02-05T05:35:30;9.25;;;4.75;;
1402;SDS011;696;48.546;9.896;2023-02-05T05:37:56;8.82;;;4.93;;
1402;SDS011;696;48.546;9.896;2023-02-05T05:40:21;8.60;;;4.82;;
1402;SDS011;696;48.546;9.896;2023-02-05T05:43:07;7.40;;;4.72;;
1402;SDS011;696;48.546;9.896;2023-02-05T05:45:54;5.60;;;4.28;;
1402;SDS011;696;48.546;9.896;2023-02-05T05:48:19;5.85;;;4.55;;
1402;SDS011;696;48.546;9.896;2023-02-05T05:50:44;7.57;;;4.93;;
1402;SDS011;696;48.546;9.896;2023-02-05T05:53:10;8.15;;;5.38;;
1402;SDS011;696;48.546;9.896;2023-02-05T05:55:35;7.07;;;5.10;;
1402;SDS011;696;48.546;9.896;2023-02-05T05:58:01;7.22;;;4.88;;
1402;SDS011;696;48.546;9.896;2023-02-05T06:00:26;7.22;;;5.20;;
1402;SDS011;696;48.546;9.896;2023-02-05T06:02:51;9.32;;;5.22;;
1402;SDS011;696;48.546;9.896;2023-02-05T06:05:17;6.10;;;4.43;;
1402;SDS011;696;48.546;9.896;2023-02-05T06:07:42;6.88;;;5.25;;
1402;SDS011;696;48.546;9.896;2023-02-05T06:10:07;5.88;;;4.43;;
1402;SDS011;696;48.546;9.896;2023-02-05T06:12:34;5.97;;;4.68;;
1402;SDS011;696;48.546;9.896;2023-02-05T06:14:59;4.78;;;4.07;;
1402;SDS011;696;48.546;9.896;2023-02-05T06:17:25;5.78;;;4.25;;
1402;SDS011;696;48.546;9.896;2023-02-05T06:19:50;6.25;;;4.57;;
1402;SDS011;696;48.546;9.896;2023-02-05T06:22:15;10.93;;;5.10;;
1402;SDS011;696;48.546;9.896;2023-02-05T06:24:41;7.82;;;4.82;;
1402;SDS011;696;48.546;9.896;2023-02-05T06:27:06;6.95;;;5.22;;
1402;SDS011;696;48.546;9.896;2023-02-05T06:29:31;7.50;;;4.82;;
1402;SDS011;696;48.546;9.896;2023-02-05T06:31:57;7.35;;;5.32;;
1402;SDS011;696;48.546;9.896;2023-02-05T06:34:22;10.65;;;6.93;;
1402;SDS011;696;48.546;9.896;2023-02-05T06:36:49;20.55;;;7.88;;
1402;SDS011;696;48.546;9.896;2023-02-05T06:39:15;13.82;;;8.15;;
1402;SDS011;696;48.546;9.896;2023-02-05T06:41:43;14.32;;;8.32;;
1402;SDS011;696;48.546;9.896;2023-02-05T06:44:08;13.88;;;7.70;;
1402;SDS011;696;48.546;9.896;2023-02-05T06:46:34;10.77;;;7.03;;
1402;SDS011;696;48.546;9.896;2023-02-05T06:48:59;7.97;;;6.10;;
1402;SDS011;696;48.546;9.896;2023-02-05T06:51:24;9.43;;;6.00;;
1402;SDS011;696;48.546;9.896;2023-02-05T06:53:52;11.45;;;6.47;;
1402;SDS011;696;48.546;9.896;2023-02-05T06:56:21;9.35;;;6.13;;
1402;SDS011;696;48.546;9.896;2023-02-05T06:58:47;8.90;;;6.00;;
1402;SDS011;696;48.546;9.896;2023-02-05T07:01:12;14.82;;;6.68;;
1402;SDS011;696;48.546;9.896;2023-02-05T07:03:37;6.57;;;5.50;;
1402;SDS011;696;48.546;9.896;2023-02-05T07:06:03;12.85;;;6.85;;
1402;SDS011;696;48.546;9.896;2023-02-05T07:08:29;13.85;;;7.13;;
1402;SDS011;696;48.546;9.896;2023-02-05T07:10:54;11.25;;;6.03;;
1402;SDS011;696;48.546;9.896;2023-02-05T07:13:20;9.95;;;6.22;;
1402;SDS011;696;48.546;9.896;2023-02-05T07:15:45;10.30;;;5.85;;
1402;SDS011;696;48.546;9.896;2023-02-05T07:18:11;10.48;;;5.22;;
1402;SDS011;696;48.546;9.896;2023-02-05T07:20:36;7.47;;;5.20;;
1402;SDS011;696;48.546;9.896;2023-02-05T07:23:02;12.57;;;7.05;;
1402;SDS011;696;48.546;9.896;2023-02-05T07:25:27;10.68;;;5.78;;
1402;SDS011;696;48.546;9.896;2023-02-05T07:27:53;11.23;;;6.57;;
1402;SDS011;696;48.546;9.896;2023-02-05T07:30:18;13.63;;;6.43;;
1402;SDS011;696;48.546;9.896;2023-02-05T07:32:43;22.75;;;8.57;;
1402;SDS011;696;48.546;9.896;2023-02-05T07:35:09;10.65;;;6.32;;
1402;SDS011;696;48.546;9.896;2023-02-05T07:37:34;8.02;;;5.93;;
1402;SDS011;696;48.546;9.896;2023-02-05T07:40:01;28.02;;;13.63;;
1402;SDS011;696;48.546;9.896;2023-02-05T07:42:26;27.48;;;11.38;;
1402;SDS011;696;48.546;9.896;2023-02-05T07:44:52;17.48;;;8.65;;
1402;SDS011;696;48.546;9.896;2023-02-05T07:47:18;11.02;;;7.75;;
1402;SDS011;696;48.546;9.896;2023-02-05T07:49:44;9.75;;;6.57;;
1402;SDS011;696;48.546;9.896;2023-02-05T07:52:09;11.00;;;5.78;;
1402;SDS011;696;48.546;9.896;2023-02-05T07:54:35;9.93;;;6.03;;
1402;SDS011;696;48.546;9.896;2023-02-05T07:57:00;7.55;;;5.43;;
1402;SDS011;696;48.546;9.896;2023-02-05T07:59:26;8.63;;;6.28;;
1402;SDS011;696;48.546;9.896;2023-02-05T08:01:51;14.25;;;6.38;;
1402;SDS011;696;48.546;9.896;2023-02-05T08:04:16;6.00;;;5.03;;
1402;SDS011;696;48.546;9.896;2023-02-05T08:06:42;11.85;;;6.57;;
1402;SDS011;696;48.546;9.896;2023-02-05T08:09:07;10.23;;;6.35;;
1402;SDS011;696;48.546;9.896;2023-02-05T08:11:34;12.20;;;5.70;;
1402;SDS011;696;48.546;9.896;2023-02-05T08:13:59;7.82;;;5.55;;
1402;SDS011;696;48.546;9.896;2023-02-05T08:16:25;8.15;;;5.85;;
1402;SDS011;696;48.546;9.896;2023-02-05T08:18:50;12.60;;;5.50;;
1402;SDS011;696;48.546;9.896;2023-02-05T08:21:16;11.55;;;6.70;;
1402;SDS011;696;48.546;9.896;2023-02-05T08:23:41;8.90;;;6.50;;
1402;SDS011;696;48.546;9.896;2023-02-05T08:26:07;9.90;;;6.13;;
1402;SDS011;696;48.546;9.896;2023-02-05T08:28:32;9.15;;;6.03;;
1402;SDS011;696;48.546;9.896;2023-02-05T08:31:07;9.05;;;7.25;;
1402;SDS011;696;48.546;9.896;2023-02-05T08:33:33;8.85;;;6.18;;
1402;SDS011;696;48.546;9.896;2023-02-05T08:35:58;11.07;;;7.38;;
1402;SDS011;696;48.546;9.896;2023-02-05T08:38:24;11.90;;;6.60;;
1402;SDS011;696;48.546;9.896;2023-02-05T08:40:49;11.27;;;6.28;;
1402;SDS011;696;48.546;9.896;2023-02-05T08:43:15;12.05;;;6.28;;
1402;SDS011;696;48.546;9.896;2023-02-05T08:45:42;12.80;;;7.13;;
1402;SDS011;696;48.546;9.896;2023-02-05T08:48:10;8.80;;;6.25;;
1402;SDS011;696;48.546;9.896;2023-02-05T08:50:35;10.20;;;6.50;;
1402;SDS011;696;48.546;9.896;2023-02-05T08:53:00;10.68;;;6.60;;
1402;SDS011;696;48.546;9.896;2023-02-05T08:55:26;7.47;;;6.30;;
1402;SDS011;696;48.546;9.896;2023-02-05T08:57:51;13.25;;;6.47;;
1402;SDS011;696;48.546;9.896;2023-02-05T09:00:17;12.85;;;6.53;;
1402;SDS011;696;48.546;9.896;2023-02-05T09:02:43;10.02;;;6.22;;
1402;SDS011;696;48.546;9.896;2023-02-05T09:05:08;9.02;;;6.22;;
1402;SDS011;696;48.546;9.896;2023-02-05T09:07:34;8.68;;;5.75;;
1402;SDS011;696;48.546;9.896;2023-02-05T09:10:00;15.55;;;8.75;;
1402;SDS011;696;48.546;9.896;2023-02-05T09:12:26;15.65;;;7.05;;
1402;SDS011;696;48.546;9.896;2023-02-05T09:14:51;9.68;;;7.20;;
1402;SDS011;696;48.546;9.896;2023-02-05T09:17:17;20.02;;;9.90;;
1402;SDS011;696;48.546;9.896;2023-02-05T09:19:42;15.63;;;8.80;;
1402;SDS011;696;48.546;9.896;2023-02-05T09:22:07;14.15;;;9.32;;
1402;SDS011;696;48.546;9.896;2023-02-05T09:24:33;15.10;;;8.38;;
1402;SDS011;696;48.546;9.896;2023-02-05T09:27:00;16.27;;;9.30;;
1402;SDS011;696;48.546;9.896;2023-02-05T09:29:26;15.77;;;8.95;;
1402;SDS011;696;48.546;9.896;2023-02-05T09:31:52;14.25;;;8.40;;
1402;SDS011;696;48.546;9.896;2023-02-05T09:34:17;12.35;;;7.97;;
1402;SDS011;696;48.546;9.896;2023-02-05T09:36:43;10.90;;;7.88;;
1402;SDS011;696;48.546;9.896;2023-02-05T09:39:08;10.15;;;7.05;;
1402;SDS011;696;48.546;9.896;2023-02-05T09:41:45;9.43;;;6.82;;
1402;SDS011;696;48.546;9.896;2023-02-05T09:49:52;11.35;;;7.85;;
1402;SDS011;696;48.546;9.896;2023-02-05T09:52:21;10.27;;;7.68;;
1402;SDS011;696;48.546;9.896;2023-02-05T09:54:53;14.43;;;8.25;;
1402;SDS011;696;48.546;9.896;2023-02-05T09:57:31;14.93;;;9.38;;
1402;SDS011;696;48.546;9.896;2023-02-05T09:59:56;11.50;;;8.05;;
1402;SDS011;696;48.546;9.896;2023-02-05T10:02:27;15.77;;;8.85;;
1402;SDS011;696;48.546;9.896;2023-02-05T10:04:58;11.38;;;8.18;;
1402;SDS011;696;48.546;9.896;2023-02-05T10:07:24;14.80;;;8.20;;
1402;SDS011;696;48.546;9.896;2023-02-05T10:15:52;11.95;;;8.25;;
1402;SDS011;696;48.546;9.896;2023-02-05T10:21:30;13.45;;;8.05;;
1402;SDS011;696;48.546;9.896;2023-02-05T10:26:49;12.85;;;8.57;;
1402;SDS011;696;48.546;9.896;2023-02-05T10:32:07;22.17;;;8.15;;
1402;SDS011;696;48.546;9.896;2023-02-05T10:34:48;14.35;;;7.78;;
1402;SDS011;696;48.546;9.896;2023-02-05T10:37:23;12.73;;;8.82;;
1402;SDS011;696;48.546;9.896;2023-02-05T10:40:09;10.88;;;8.25;;
1402;SDS011;696;48.546;9.896;2023-02-05T10:42:40;11.90;;;8.38;;
1402;SDS011;696;48.546;9.896;2023-02-05T10:53:06;9.40;;;7.13;;
1402;SDS011;696;48.546;9.896;2023-02-05T10:55:32;9.60;;;7.22;;
1402;SDS011;696;48.546;9.896;2023-02-05T10:57:58;14.93;;;7.93;;
1402;SDS011;696;48.546;9.896;2023-02-05T11:00:26;13.93;;;7.35;;
1402;SDS011;696;48.546;9.896;2023-02-05T11:02:52;12.68;;;7.85;;
1402;SDS011;696;48.546;9.896;2023-02-05T11:07:53;15.73;;;7.63;;
1402;SDS011;696;48.546;9.896;2023-02-05T11:10:21;14.50;;;7.28;;
1402;SDS011;696;48.546;9.896;2023-02-05T11:12:58;10.13;;;6.18;;
1402;SDS011;696;48.546;9.896;2023-02-05T11:15:28;11.38;;;7.75;;
1402;SDS011;696;48.546;9.896;2023-02-05T11:17:55;12.40;;;7.95;;
1402;SDS011;696;48.546;9.896;2023-02-05T11:20:30;9.75;;;7.15;;
1402;SDS011;696;48.546;9.896;2023-02-05T11:23:14;12.15;;;8.07;;
1402;SDS011;696;48.546;9.896;2023-02-05T11:25:52;14.73;;;8.07;;
1402;SDS011;696;48.546;9.896;2023-02-05T11:30:57;12.50;;;8.10;;
1402;SDS011;696;48.546;9.896;2023-02-05T11:34:15;12.65;;;7.93;;
1402;SDS011;696;48.546;9.896;2023-02-05T11:36:51;16.45;;;8.13;;
1402;SDS011;696;48.546;9.896;2023-02-05T11:39:30;10.05;;;7.25;;
1402;SDS011;696;48.546;9.896;2023-02-05T11:42:06;16.13;;;7.38;;
1402;SDS011;696;48.546;9.896;2023-02-05T11:44:33;15.50;;;8.98;;
1402;SDS011;696;48.546;9.896;2023-02-05T11:47:01;12.98;;;8.18;;
1402;SDS011;696;48.546;9.896;2023-02-05T11:49:37;12.10;;;8.35;;
1402;SDS011;696;48.546;9.896;2023-02-05T11:52:06;15.95;;;8.95;;
1402;SDS011;696;48.546;9.896;2023-02-05T11:54:33;13.52;;;8.18;;
1402;SDS011;696;48.546;9.896;2023-02-05T11:59:31;13.43;;;8.88;;
1402;SDS011;696;48.546;9.896;2023-02-05T12:04:49;19.33;;;9.73;;
1402;SDS011;696;48.546;9.896;2023-02-05T12:07:16;17.48;;;10.25;;
1402;SDS011;696;48.546;9.896;2023-02-05T12:09:43;15.43;;;8.90;;
1402;SDS011;696;48.546;9.896;2023-02-05T12:12:21;18.15;;;8.60;;
1402;SDS011;696;48.546;9.896;2023-02-05T12:20:38;11.73;;;8.07;;
1402;SDS011;696;48.546;9.896;2023-02-05T12:32:00;17.10;;;8.75;;
1402;SDS011;696;48.546;9.896;2023-02-05T12:34:52;16.13;;;8.48;;
1402;SDS011;696;48.546;9.896;2023-02-05T12:51:38;11.20;;;6.93;;
1402;SDS011;696;48.546;9.896;2023-02-05T12:54:18;12.13;;;7.07;;
1402;SDS011;696;48.546;9.896;2023-02-05T12:57:00;14.80;;;7.82;;
1402;SDS011;696;48.546;9.896;2023-02-05T13:02:17;14.98;;;8.13;;
1402;SDS011;696;48.546;9.896;2023-02-05T13:04:55;15.60;;;9.20;;
1402;SDS011;696;48.546;9.896;2023-02-05T13:09:59;23.17;;;10.27;;
1402;SDS011;696;48.546;9.896;2023-02-05T13:12:27;27.25;;;11.55;;
1402;SDS011;696;48.546;9.896;2023-02-05T13:17:53;21.08;;;10.23;;
1402;SDS011;696;48.546;9.896;2023-02-05T13:23:13;16.92;;;9.95;;
1402;SDS011;696;48.546;9.896;2023-02-05T13:25:57;30.30;;;10.00;;
1402;SDS011;696;48.546;9.896;2023-02-05T13:31:11;18.58;;;8.25;;
1402;SDS011;696;48.546;9.896;2023-02-05T13:33:37;15.55;;;8.15;;
1402;SDS011;696;48.546;9.896;2023-02-05T13:36:20;11.77;;;6.55;;
1402;SDS011;696;48.546;9.896;2023-02-05T13:39:04;14.93;;;7.75;;
1402;SDS011;696;48.546;9.896;2023-02-05T13:52:35;15.23;;;8.20;;
1402;SDS011;696;48.546;9.896;2023-02-05T14:00:57;18.73;;;8.90;;
1402;SDS011;696;48.546;9.896;2023-02-05T14:03:26;17.33;;;8.90;;
1402;SDS011;696;48.546;9.896;2023-02-05T14:05:57;27.50;;;10.00;;
1402;SDS011;696;48.546;9.896;2023-02-05T14:08:23;27.27;;;13.93;;
1402;SDS011;696;48.546;9.896;2023-02-05T14:10:58;22.33;;;13.63;;
1402;SDS011;696;48.546;9.896;2023-02-05T14:13:27;26.20;;;14.57;;
1402;SDS011;696;48.546;9.896;2023-02-05T14:18:49;22.25;;;13.35;;
1402;SDS011;696;48.546;9.896;2023-02-05T14:27:03;33.88;;;14.57;;
1402;SDS011;696;48.546;9.896;2023-02-05T14:29:42;31.73;;;18.10;;
1402;SDS011;696;48.546;9.896;2023-02-05T14:32:12;36.03;;;16.27;;
1402;SDS011;696;48.546;9.896;2023-02-05T14:35:04;22.25;;;14.70;;
1402;SDS011;696;48.546;9.896;2023-02-05T14:37:48;22.88;;;14.73;;
1402;SDS011;696;48.546;9.896;2023-02-05T14:43:11;28.58;;;14.32;;
1402;SDS011;696;48.546;9.896;2023-02-05T14:45:45;21.33;;;14.30;;
1402;SDS011;696;48.546;9.896;2023-02-05T14:48:23;25.90;;;13.73;;
1402;SDS011;696;48.546;9.896;2023-02-05T14:53:32;21.92;;;11.80;;
1402;SDS011;696;48.546;9.896;2023-02-05T14:55:59;19.45;;;12.15;;
1402;SDS011;696;48.546;9.896;2023-02-05T15:03:57;20.13;;;12.13;;
1402;SDS011;696;48.546;9.896;2023-02-05T15:06:24;20.73;;;10.95;;
1402;SDS011;696;48.546;9.896;2023-02-05T15:09:00;18.75;;;11.15;;
1402;SDS011;696;48.546;9.896;2023-02-05T15:11:34;22.45;;;11.32;;
1402;SDS011;696;48.546;9.896;2023-02-05T15:19:29;19.23;;;11.45;;
1402;SDS011;696;48.546;9.896;2023-02-05T15:21:54;26.92;;;13.00;;
1402;SDS011;696;48.546;9.896;2023-02-05T15:24:23;36.28;;;15.57;;
1402;SDS011;696;48.546;9.896;2023-02-05T15:26:53;27.33;;;15.55;;
1402;SDS011;696;48.546;9.896;2023-02-05T15:31:57;29.88;;;16.13;;
1402;SDS011;696;48.546;9.896;2023-02-05T15:39:58;20.23;;;13.25;;
1402;SDS011;696;48.546;9.896;2023-02-05T15:42:31;19.90;;;12.13;;
1402;SDS011;696;48.546;9.896;2023-02-05T15:45:14;19.40;;;12.00;;
1402;SDS011;696;48.546;9.896;2023-02-05T15:48:23;23.55;;;14.25;;
1402;SDS011;696;48.546;9.896;2023-02-05T15:50:47;27.27;;;12.68;;
1402;SDS011;696;48.546;9.896;2023-02-05T15:53:28;24.73;;;11.60;;
1402;SDS011;696;48.546;9.896;2023-02-05T15:56:14;19.70;;;11.40;;
1402;SDS011;696;48.546;9.896;2023-02-05T15:58:56;20.85;;;10.75;;
1402;SDS011;696;48.546;9.896;2023-02-05T16:01:44;11.07;;;7.00;;
1402;SDS011;696;48.546;9.896;2023-02-05T16:04:23;10.82;;;6.57;;
1402;SDS011;696;48.546;9.896;2023-02-05T16:06:52;11.30;;;6.30;;
1402;SDS011;696;48.546;9.896;2023-02-05T16:09:19;7.57;;;5.22;;
1402;SDS011;696;48.546;9.896;2023-02-05T16:11:46;5.95;;;3.88;;
1402;SDS011;696;48.546;9.896;2023-02-05T16:14:13;5.25;;;3.58;;
1402;SDS011;696;48.546;9.896;2023-02-05T16:16:48;5.93;;;4.18;;
1402;SDS011;696;48.546;9.896;2023-02-05T16:19:18;6.65;;;4.32;;
1402;SDS011;696;48.546;9.896;2023-02-05T16:21:47;4.95;;;3.83;;
1402;SDS011;696;48.546;9.896;2023-02-05T16:26:47;4.47;;;3.45;;
1402;SDS011;696;48.546;9.896;2023-02-05T16:29:50;4.68;;;3.42;;
1402;SDS011;696;48.546;9.896;2023-02-05T16:32:13;3.65;;;3.33;;
1402;SDS011;696;48.546;9.896;2023-02-05T16:34:54;3.35;;;3.05;;
1402;SDS011;696;48.546;9.896;2023-02-05T16:37:19;5.40;;;3.70;;
1402;SDS011;696;48.546;9.896;2023-02-05T16:39:49;5.15;;;3.33;;
1402;SDS011;696;48.546;9.896;2023-02-05T16:44:50;4.30;;;3.35;;
1402;SDS011;696;48.546;9.896;2023-02-05T16:47:29;7.00;;;3.45;;
1402;SDS011;696;48.546;9.896;2023-02-05T16:49:54;5.57;;;3.47;;
1402;SDS011;696;48.546;9.896;2023-02-05T16:52:24;4.13;;;3.45;;
1402;SDS011;696;48.546;9.896;2023-02-05T16:54:53;6.50;;;4.28;;
1402;SDS011;696;48.546;9.896;2023-02-05T16:57:37;4.20;;;3.40;;
1402;SDS011;696;48.546;9.896;2023-02-05T17:00:04;3.17;;;2.88;;
1402;SDS011;696;48.546;9.896;2023-02-05T17:02:56;3.47;;;2.85;;
1402;SDS011;696;48.546;9.896;2023-02-05T17:05:23;4.05;;;2.95;;
1402;SDS011;696;48.546;9.896;2023-02-05T17:07:57;3.38;;;3.08;;
1402;SDS011;696;48.546;9.896;2023-02-05T17:10:25;4.95;;;3.15;;
1402;SDS011;696;48.546;9.896;2023-02-05T17:15:34;14.48;;;5.45;;
1402;SDS011;696;48.546;9.896;2023-02-05T17:18:16;13.18;;;6.82;;
1402;SDS011;696;48.546;9.896;2023-02-05T17:20:45;12.75;;;7.78;;
1402;SDS011;696;48.546;9.896;2023-02-05T17:23:12;127.22;;;36.80;;
1402;SDS011;696;48.546;9.896;2023-02-05T17:28:12;22.63;;;11.48;;
1402;SDS011;696;48.546;9.896;2023-02-05T17:30:40;12.98;;;6.43;;
1402;SDS011;696;48.546;9.896;2023-02-05T17:33:12;7.00;;;4.53;;
1402;SDS011;696;48.546;9.896;2023-02-05T17:35:41;4.47;;;3.40;;
1402;SDS011;696;48.546;9.896;2023-02-05T17:38:06;4.47;;;2.90;;
1402;SDS011;696;48.546;9.896;2023-02-05T17:40:31;3.47;;;3.05;;
1402;SDS011;696;48.546;9.896;2023-02-05T17:42:57;3.70;;;3.38;;
1402;SDS011;696;48.546;9.896;2023-02-05T17:45:41;5.07;;;3.65;;
1402;SDS011;696;48.546;9.896;2023-02-05T17:48:10;4.25;;;3.28;;
1402;SDS011;696;48.546;9.896;2023-02-05T17:50:35;4.47;;;3.70;;
1402;SDS011;696;48.546;9.896;2023-02-05T17:53:01;5.43;;;3.85;;
1402;SDS011;696;48.546;9.896;2023-02-05T17:55:26;4.60;;;3.55;;
1402;SDS011;696;48.546;9.896;2023-02-05T17:57:52;6.28;;;3.80;;
1402;SDS011;696;48.546;9.896;2023-02-05T18:00:21;5.90;;;3.53;;
1402;SDS011;696;48.546;9.896;2023-02-05T18:02:48;5.63;;;3.03;;
1402;SDS011;696;48.546;9.896;2023-02-05T18:05:14;4.30;;;3.70;;
1402;SDS011;696;48.546;9.896;2023-02-05T18:07:41;6.97;;;3.78;;
1402;SDS011;696;48.546;9.896;2023-02-05T18:10:13;8.57;;;4.32;;
1402;SDS011;696;48.546;9.896;2023-02-05T18:12:40;4.70;;;3.75;;
1402;SDS011;696;48.546;9.896;2023-02-05T18:15:05;4.53;;;3.33;;
1402;SDS011;696;48.546;9.896;2023-02-05T18:17:31;3.35;;;2.72;;
1402;SDS011;696;48.546;9.896;2023-02-05T18:19:56;4.35;;;3.50;;
1402;SDS011;696;48.546;9.896;2023-02-05T18:22:22;6.10;;;4.45;;
1402;SDS011;696;48.546;9.896;2023-02-05T18:24:47;12.40;;;6.72;;
1402;SDS011;696;48.546;9.896;2023-02-05T18:27:12;18.77;;;6.85;;